Time;durP1;ratioP1;P1;durP2;ratioP2;P2;SDS_P1;SDS_P2;PMS_P1;PMS_P2;Temp;Humidity;BMP_temperature;BMP_pressure;BME280_temperature;BME280_humidity;BME280_pressure;Samples;Min_cycle;Max_cycle;Signal;HPM_P1;HPM_P2
2021/06/23 00:00:25;;;;;;;5.13;1.95;;;20.10;79.20;;;;;;4997130;28;20049;-64
2021/06/23 00:02:51;;;;;;;0.95;0.90;;;20.00;78.40;;;;;;4995376;28;20088;-63
2021/06/23 00:05:18;;;;;;;1.00;0.60;;;19.90;77.20;;;;;;4997577;28;20041;-64
2021/06/23 00:07:44;;;;;;;0.68;0.30;;;19.80;76.30;;;;;;4994688;28;20048;-63
2021/06/23 00:10:12;;;;;;;0.50;0.30;;;19.60;75.10;;;;;;4995758;28;20038;-64
2021/06/23 00:12:38;;;;;;;0.60;0.20;;;19.50;74.20;;;;;;4994560;28;20042;-64
2021/06/23 00:15:05;;;;;;;0.20;0.20;;;19.30;74.20;;;;;;4998837;28;20038;-63
2021/06/23 00:17:31;;;;;;;0.40;0.20;;;19.20;74.90;;;;;;4999738;28;20038;-63
2021/06/23 00:19:56;;;;;;;0.70;0.32;;;19.00;75.80;;;;;;4996599;28;20057;-63
2021/06/23 00:22:22;;;;;;;0.30;0.30;;;18.90;76.50;;;;;;4992643;28;20046;-65
2021/06/23 00:24:48;;;;;;;0.40;0.40;;;18.80;76.90;;;;;;4994559;28;20103;-64
2021/06/23 00:27:14;;;;;;;0.90;0.30;;;18.80;77.70;;;;;;4992798;28;20493;-64
2021/06/23 00:29:40;;;;;;;0.55;0.30;;;18.70;77.90;;;;;;4995588;28;20038;-63
2021/06/23 00:32:11;;;;;;;0.60;0.20;;;18.60;77.40;;;;;;4996623;28;20037;-64
2021/06/23 00:34:37;;;;;;;0.30;0.30;;;18.60;77.20;;;;;;4995856;28;20055;-64
2021/06/23 00:37:03;;;;;;;0.80;0.50;;;18.60;77.50;;;;;;4998166;28;20607;-64
2021/06/23 00:39:29;;;;;;;0.32;0.32;;;18.60;78.50;;;;;;4995922;28;20588;-64
2021/06/23 00:41:55;;;;;;;0.40;0.38;;;18.50;77.70;;;;;;4991500;28;20121;-64
2021/06/23 00:44:21;;;;;;;3.53;0.40;;;18.50;77.70;;;;;;4996248;28;20201;-64
2021/06/23 00:46:47;;;;;;;0.90;0.40;;;18.50;77.70;;;;;;4995740;28;20037;-64
2021/06/23 00:49:14;;;;;;;2.35;0.30;;;18.40;77.80;;;;;;4997228;28;20053;-64
2021/06/23 00:51:39;;;;;;;0.40;0.20;;;18.40;77.70;;;;;;4996157;28;20815;-64
2021/06/23 00:54:13;;;;;;;0.30;0.30;;;18.40;78.20;;;;;;4995499;28;20533;-64
2021/06/23 00:56:40;;;;;;;0.63;0.30;;;18.40;78.40;;;;;;4996963;28;20113;-64
2021/06/23 00:59:08;;;;;;;0.95;0.30;;;18.40;77.70;;;;;;4995783;28;20033;-64
2021/06/23 01:01:37;;;;;;;0.40;0.20;;;18.40;77.80;;;;;;4998060;28;20104;-64
2021/06/23 01:04:03;;;;;;;0.40;0.20;;;18.40;77.70;;;;;;4993445;28;20973;-64
2021/06/23 01:06:30;;;;;;;0.20;0.20;;;18.40;77.70;;;;;;4995711;28;20044;-63
2021/06/23 01:08:56;;;;;;;0.30;0.30;;;18.40;77.20;;;;;;4995292;28;20034;-64
2021/06/23 01:11:22;;;;;;;0.32;0.20;;;18.50;77.10;;;;;;4997084;28;20061;-64
2021/06/23 01:14:07;;;;;;;0.13;0.13;;;18.50;77.50;;;;;;4994869;28;20057;-64
2021/06/23 01:16:39;;;;;;;0.43;0.20;;;18.50;77.70;;;;;;4998401;28;20065;-64
2021/06/23 01:19:10;;;;;;;1.25;0.15;;;18.50;77.20;;;;;;4996531;28;20030;-64
2021/06/23 01:21:37;;;;;;;0.63;0.30;;;18.60;77.00;;;;;;4994903;28;20113;-64
2021/06/23 01:24:04;;;;;;;0.35;0.10;;;18.60;76.90;;;;;;4995976;28;20081;-64
2021/06/23 01:26:30;;;;;;;0.20;0.15;;;18.60;76.90;;;;;;4998511;28;20623;-64
2021/06/23 01:28:56;;;;;;;1.23;0.30;;;18.60;76.80;;;;;;4995403;28;20041;-64
2021/06/23 01:31:22;;;;;;;0.20;0.20;;;18.60;77.00;;;;;;4993409;28;20076;-64
2021/06/23 01:33:48;;;;;;;1.40;0.40;;;18.60;76.90;;;;;;4994879;28;20034;-64
2021/06/23 01:36:14;;;;;;;0.77;0.20;;;18.60;77.00;;;;;;4997310;28;20048;-64
2021/06/23 01:38:40;;;;;;;0.60;0.35;;;18.60;77.20;;;;;;4995200;28;20038;-64
2021/06/23 01:41:06;;;;;;;0.28;0.28;;;18.60;78.60;;;;;;4996827;28;20038;-64
2021/06/23 01:43:32;;;;;;;0.20;0.20;;;18.60;77.70;;;;;;4996262;28;20115;-64
2021/06/23 01:45:58;;;;;;;1.55;0.30;;;18.60;77.50;;;;;;4995651;28;20494;-64
2021/06/23 01:48:25;;;;;;;0.40;0.30;;;18.60;77.60;;;;;;4992384;28;20033;-64
2021/06/23 01:50:53;;;;;;;0.40;0.20;;;18.60;77.70;;;;;;4995103;28;20547;-63
2021/06/23 01:53:19;;;;;;;0.22;0.20;;;18.60;77.90;;;;;;4995721;28;20073;-65
2021/06/23 01:55:47;;;;;;;0.38;0.38;;;18.60;77.90;;;;;;4996724;28;22150;-64
2021/06/23 01:58:13;;;;;;;1.05;0.40;;;18.60;77.90;;;;;;4997100;28;20053;-64
2021/06/23 02:00:46;;;;;;;0.22;0.22;;;18.60;77.90;;;;;;4994456;28;20026;-64
2021/06/23 02:03:39;;;;;;;0.20;0.20;;;18.60;78.40;;;;;;4993491;28;20395;-64
2021/06/23 02:06:07;;;;;;;0.95;0.40;;;18.70;78.40;;;;;;4995773;28;20030;-64
2021/06/23 02:08:58;;;;;;;0.52;0.20;;;18.70;78.00;;;;;;4994841;28;20124;-64
2021/06/23 02:11:41;;;;;;;0.55;0.30;;;18.70;77.90;;;;;;4999479;28;20499;-64
2021/06/23 02:14:27;;;;;;;0.47;0.40;;;18.70;78.20;;;;;;4994366;28;20073;-64
2021/06/23 02:16:55;;;;;;;1.15;0.40;;;18.70;78.20;;;;;;4994422;28;20068;-64
2021/06/23 02:19:21;;;;;;;1.58;0.50;;;18.70;77.90;;;;;;4994726;28;20141;-63
2021/06/23 02:21:47;;;;;;;0.65;0.30;;;18.70;78.00;;;;;;4992979;28;20702;-63
2021/06/23 02:24:15;;;;;;;0.70;0.30;;;18.60;78.20;;;;;;4994521;28;20568;-64
2021/06/23 02:26:41;;;;;;;1.05;0.40;;;18.60;78.00;;;;;;4994481;28;20041;-64
2021/06/23 02:29:07;;;;;;;0.30;0.30;;;18.60;77.90;;;;;;4992362;28;20034;-64
2021/06/23 02:31:38;;;;;;;1.15;0.43;;;18.60;77.90;;;;;;4990820;28;20394;-62
2021/06/23 02:34:09;;;;;;;1.38;0.25;;;18.50;78.30;;;;;;4995057;28;20034;-64
2021/06/23 02:36:36;;;;;;;0.40;0.30;;;18.50;78.30;;;;;;4998044;28;20030;-64
2021/06/23 02:39:05;;;;;;;1.02;0.50;;;18.40;78.20;;;;;;4996127;28;20038;-64
2021/06/23 02:41:31;;;;;;;1.95;0.60;;;18.40;78.60;;;;;;4997321;28;20042;-63
2021/06/23 02:43:57;;;;;;;1.30;0.40;;;18.30;78.70;;;;;;4999298;28;20036;-63
2021/06/23 02:46:23;;;;;;;0.63;0.50;;;18.30;78.90;;;;;;4998669;28;20469;-64
2021/06/23 02:48:51;;;;;;;1.00;0.43;;;18.30;79.10;;;;;;5005779;28;20038;-63
2021/06/23 02:51:25;;;;;;;1.25;0.40;;;18.30;79.50;;;;;;4998133;28;20121;-64
2021/06/23 02:53:53;;;;;;;0.95;0.50;;;18.30;80.80;;;;;;4998384;28;20042;-64
2021/06/23 02:56:20;;;;;;;1.80;0.50;;;18.30;79.30;;;;;;4998796;28;20092;-64
2021/06/23 02:58:47;;;;;;;0.77;0.30;;;18.30;79.10;;;;;;5000589;28;20041;-63
2021/06/23 03:01:14;;;;;;;0.60;0.40;;;18.20;79.10;;;;;;5000507;28;20053;-64
2021/06/23 03:03:40;;;;;;;0.60;0.45;;;18.20;79.20;;;;;;4997687;28;20620;-64
2021/06/23 03:06:06;;;;;;;0.75;0.40;;;18.20;79.40;;;;;;4996513;28;20088;-64
2021/06/23 03:08:33;;;;;;;0.52;0.40;;;18.20;79.70;;;;;;4997482;28;20576;-64
2021/06/23 03:10:59;;;;;;;0.45;0.30;;;18.20;80.00;;;;;;4997152;28;20042;-64
2021/06/23 03:13:25;;;;;;;0.35;0.32;;;18.20;80.00;;;;;;5000605;28;20445;-64
2021/06/23 03:15:50;;;;;;;0.30;0.28;;;18.30;80.00;;;;;;4997855;28;20038;-63
2021/06/23 03:18:16;;;;;;;0.70;0.35;;;18.30;79.90;;;;;;4995213;28;20042;-63
2021/06/23 03:20:42;;;;;;;1.05;0.43;;;18.30;79.90;;;;;;5002228;28;20065;-64
2021/06/23 03:23:07;;;;;;;0.50;0.30;;;18.30;80.10;;;;;;5000863;28;20102;-64
2021/06/23 03:25:33;;;;;;;0.55;0.40;;;18.40;80.10;;;;;;4999439;28;20517;-64
2021/06/23 03:28:00;;;;;;;2.28;0.30;;;18.40;79.80;;;;;;4999864;28;20030;-64
2021/06/23 03:30:27;;;;;;;0.43;0.40;;;18.40;79.60;;;;;;5000991;28;20081;-65
2021/06/23 03:32:54;;;;;;;0.95;0.30;;;18.40;79.60;;;;;;4996642;28;20113;-64
2021/06/23 03:35:21;;;;;;;1.38;0.50;;;18.50;79.50;;;;;;4995970;28;20033;-64
2021/06/23 03:37:51;;;;;;;1.00;0.60;;;18.50;79.40;;;;;;4993955;28;20041;-64
2021/06/23 03:40:17;;;;;;;0.70;0.50;;;18.50;79.50;;;;;;4994878;28;20040;-64
2021/06/23 03:42:44;;;;;;;1.02;0.55;;;18.50;79.30;;;;;;4993924;28;20513;-64
2021/06/23 03:45:11;;;;;;;0.60;0.40;;;18.50;79.30;;;;;;4994552;28;20038;-64
2021/06/23 03:47:38;;;;;;;0.98;0.60;;;18.50;79.10;;;;;;4994061;28;20038;-63
2021/06/23 03:50:04;;;;;;;0.85;0.45;;;18.50;79.20;;;;;;4995505;28;20116;-63
2021/06/23 03:52:30;;;;;;;2.40;0.40;;;18.40;79.30;;;;;;4992415;28;20561;-64
2021/06/23 03:54:56;;;;;;;0.65;0.40;;;18.40;79.40;;;;;;4996492;28;20533;-63
2021/06/23 03:57:21;;;;;;;0.47;0.47;;;18.40;79.50;;;;;;5003475;28;20043;-65
2021/06/23 03:59:47;;;;;;;2.50;0.50;;;18.30;79.70;;;;;;4998811;28;20026;-64
2021/06/23 04:02:12;;;;;;;1.20;0.60;;;18.30;80.00;;;;;;5001131;28;20042;-64
2021/06/23 04:04:38;;;;;;;0.80;0.40;;;18.30;80.00;;;;;;4996008;28;20034;-64
2021/06/23 04:07:04;;;;;;;0.95;0.52;;;18.40;79.90;;;;;;4994858;28;20042;-64
2021/06/23 04:09:29;;;;;;;1.35;0.52;;;18.40;79.60;;;;;;4997765;28;20049;-64
2021/06/23 04:11:55;;;;;;;0.38;0.32;;;18.40;79.70;;;;;;4995429;28;20137;-64
2021/06/23 04:14:21;;;;;;;2.17;0.52;;;18.40;79.60;;;;;;4999216;28;20499;-64
2021/06/23 04:16:47;;;;;;;0.32;0.32;;;18.40;79.70;;;;;;4997938;28;20030;-64
2021/06/23 04:19:12;;;;;;;1.40;0.40;;;18.40;79.50;;;;;;4999438;28;20034;-64
2021/06/23 04:21:39;;;;;;;0.40;0.40;;;18.50;79.50;;;;;;4993180;28;20537;-64
2021/06/23 04:24:05;;;;;;;0.47;0.47;;;18.50;79.40;;;;;;4993225;28;20528;-64
2021/06/23 04:26:30;;;;;;;0.65;0.40;;;18.50;79.60;;;;;;4996246;28;20041;-64
2021/06/23 04:28:56;;;;;;;0.40;0.40;;;18.60;79.60;;;;;;4996187;28;20515;-64
2021/06/23 04:31:22;;;;;;;0.30;0.30;;;18.60;79.60;;;;;;4997860;28;20035;-64
2021/06/23 04:33:47;;;;;;;0.40;0.40;;;18.60;79.40;;;;;;4995045;28;20037;-63
2021/06/23 04:36:13;;;;;;;0.65;0.60;;;18.60;79.30;;;;;;4996368;28;20026;-64
2021/06/23 04:38:40;;;;;;;0.90;0.50;;;18.60;79.00;;;;;;4996556;28;20117;-64
2021/06/23 04:41:05;;;;;;;2.08;0.50;;;18.60;78.80;;;;;;4997492;28;20029;-64
2021/06/23 04:43:31;;;;;;;0.50;0.50;;;18.60;78.90;;;;;;4994875;28;20039;-64
2021/06/23 04:45:57;;;;;;;0.82;0.40;;;18.50;79.00;;;;;;4995704;28;20501;-64
2021/06/23 04:48:22;;;;;;;0.60;0.50;;;18.40;79.00;;;;;;5011413;28;20497;-65
2021/06/23 04:50:48;;;;;;;0.85;0.40;;;18.30;79.10;;;;;;4995015;28;20038;-64
2021/06/23 04:53:14;;;;;;;0.60;0.32;;;18.30;79.10;;;;;;4997781;28;20044;-64
2021/06/23 04:55:39;;;;;;;0.30;0.30;;;18.20;79.40;;;;;;4996902;28;20759;-63
2021/06/23 04:58:05;;;;;;;1.50;0.43;;;18.10;79.70;;;;;;4996108;28;20035;-64
2021/06/23 05:00:31;;;;;;;0.60;0.40;;;18.10;80.10;;;;;;4994687;28;20034;-64
2021/06/23 05:02:56;;;;;;;0.50;0.50;;;18.10;80.50;;;;;;4997858;28;20052;-64
2021/06/23 05:05:22;;;;;;;0.63;0.60;;;18.10;80.50;;;;;;5011918;28;20573;-64
2021/06/23 05:07:48;;;;;;;0.80;0.70;;;18.10;80.30;;;;;;5001397;28;20037;-65
2021/06/23 05:10:13;;;;;;;0.50;0.50;;;18.10;81.20;;;;;;4997130;28;20135;-64
2021/06/23 05:12:39;;;;;;;0.60;0.60;;;18.10;80.30;;;;;;5004590;28;20136;-64
2021/06/23 05:15:06;;;;;;;0.70;0.70;;;18.10;80.30;;;;;;4998107;28;20411;-64
2021/06/23 05:17:32;;;;;;;0.85;0.70;;;18.10;80.30;;;;;;4999283;28;20437;-64
2021/06/23 05:19:59;;;;;;;0.70;0.70;;;18.10;80.40;;;;;;4997780;28;20075;-65
2021/06/23 05:22:24;;;;;;;0.98;0.63;;;18.10;80.80;;;;;;4997597;28;20137;-63
2021/06/23 05:24:51;;;;;;;0.98;0.63;;;18.10;81.20;;;;;;4998919;28;20547;-64
2021/06/23 05:27:17;;;;;;;0.82;0.80;;;18.10;81.10;;;;;;4996473;28;20192;-65
2021/06/23 05:29:43;;;;;;;2.95;0.77;;;18.10;81.00;;;;;;4998803;28;20117;-64
2021/06/23 05:32:08;;;;;;;1.10;0.80;;;18.10;81.20;;;;;;4998339;28;20073;-64
2021/06/23 05:34:35;;;;;;;1.00;0.80;;;18.10;81.10;;;;;;4997932;28;20398;-64
2021/06/23 05:37:01;;;;;;;0.80;0.80;;;18.10;81.20;;;;;;4997640;28;20409;-65
2021/06/23 05:39:27;;;;;;;0.55;0.55;;;18.20;81.10;;;;;;4998824;28;20044;-64
2021/06/23 05:41:52;;;;;;;0.45;0.45;;;18.20;81.00;;;;;;4998268;28;20103;-64
2021/06/23 05:44:18;;;;;;;1.13;0.80;;;18.30;81.30;;;;;;4997519;28;20041;-64
2021/06/23 05:46:44;;;;;;;0.68;0.50;;;18.30;81.00;;;;;;4998328;28;20033;-64
2021/06/23 05:49:09;;;;;;;1.20;0.70;;;18.40;81.20;;;;;;4997707;28;20037;-64
2021/06/23 05:51:35;;;;;;;0.70;0.63;;;18.50;80.80;;;;;;4997025;28;20058;-64
2021/06/23 05:54:01;;;;;;;0.55;0.55;;;18.60;80.50;;;;;;4998338;28;20117;-64
2021/06/23 05:56:27;;;;;;;0.90;0.90;;;18.70;80.30;;;;;;4997015;28;20165;-64
2021/06/23 05:58:52;;;;;;;1.17;0.80;;;18.70;80.30;;;;;;4998069;28;20036;-64
2021/06/23 06:01:18;;;;;;;0.85;0.80;;;18.70;80.10;;;;;;4996234;28;20037;-64
2021/06/23 06:03:43;;;;;;;1.40;0.75;;;18.70;80.00;;;;;;4996632;28;20497;-64
2021/06/23 06:06:09;;;;;;;2.75;0.80;;;18.70;80.30;;;;;;4998322;28;20034;-64
2021/06/23 06:08:35;;;;;;;1.83;0.80;;;18.80;80.30;;;;;;4997797;28;20045;-65
2021/06/23 06:11:00;;;;;;;1.80;0.75;;;18.80;80.10;;;;;;5001740;28;20121;-64
2021/06/23 06:13:27;;;;;;;2.15;1.00;;;18.90;80.10;;;;;;5003089;28;20042;-65
2021/06/23 06:15:53;;;;;;;1.30;0.80;;;18.90;79.90;;;;;;4997940;28;20049;-65
2021/06/23 06:18:22;;;;;;;0.80;0.80;;;18.90;79.60;;;;;;4997396;28;20533;-65
2021/06/23 06:20:48;;;;;;;0.93;0.93;;;19.00;79.60;;;;;;4997334;28;20486;-65
2021/06/23 06:23:14;;;;;;;1.00;0.88;;;18.90;79.30;;;;;;4997049;28;20039;-64
2021/06/23 06:25:39;;;;;;;1.17;1.08;;;19.00;79.10;;;;;;4997672;28;20038;-64
2021/06/23 06:28:05;;;;;;;1.25;0.90;;;18.90;79.20;;;;;;4997454;28;20104;-65
2021/06/23 06:30:31;;;;;;;1.98;0.90;;;18.90;79.60;;;;;;4996959;28;20042;-65
2021/06/23 06:32:56;;;;;;;0.88;0.88;;;18.90;80.00;;;;;;4996571;28;20038;-65
2021/06/23 06:35:22;;;;;;;0.95;0.80;;;18.90;80.20;;;;;;4997363;28;20485;-65
2021/06/23 06:37:48;;;;;;;1.25;0.90;;;18.90;80.00;;;;;;4997488;28;20419;-65
2021/06/23 06:40:15;;;;;;;2.45;1.00;;;19.00;80.10;;;;;;4996562;28;20034;-65
2021/06/23 06:42:41;;;;;;;0.93;0.80;;;19.00;80.30;;;;;;4997168;28;20038;-64
2021/06/23 06:45:07;;;;;;;0.80;0.80;;;19.00;80.20;;;;;;4997748;28;20034;-65
2021/06/23 06:47:33;;;;;;;2.25;0.90;;;19.10;80.50;;;;;;5010541;28;20034;-65
2021/06/23 06:49:59;;;;;;;1.02;0.90;;;19.20;80.20;;;;;;4998780;28;20567;-65
2021/06/23 06:52:24;;;;;;;1.00;0.90;;;19.20;79.80;;;;;;4996789;28;20034;-65
2021/06/23 06:54:50;;;;;;;0.90;0.90;;;19.30;79.70;;;;;;4996607;28;20061;-64
2021/06/23 06:57:15;;;;;;;0.70;0.70;;;19.30;79.70;;;;;;5004138;28;20041;-64
2021/06/23 06:59:41;;;;;;;1.30;0.73;;;19.40;79.90;;;;;;4995362;28;20726;-65
2021/06/23 07:02:07;;;;;;;0.70;0.70;;;19.40;79.40;;;;;;4987569;28;20053;-64
2021/06/23 07:04:33;;;;;;;2.80;0.90;;;19.50;78.90;;;;;;4995201;28;20036;-64
2021/06/23 07:06:59;;;;;;;0.82;0.82;;;19.50;78.90;;;;;;4995284;28;20033;-64
2021/06/23 07:09:24;;;;;;;1.00;0.90;;;19.60;78.70;;;;;;4991858;28;20097;-64
2021/06/23 07:11:50;;;;;;;1.25;0.98;;;19.60;79.20;;;;;;4992743;28;20046;-65
2021/06/23 07:14:16;;;;;;;0.90;0.90;;;19.70;78.90;;;;;;4993667;28;20041;-64
2021/06/23 07:16:42;;;;;;;1.83;1.00;;;19.70;78.90;;;;;;4995508;28;24064;-65
2021/06/23 07:19:08;;;;;;;0.90;0.90;;;19.80;79.10;;;;;;4996742;28;20045;-64
2021/06/23 07:21:34;;;;;;;0.98;0.98;;;19.80;78.40;;;;;;4995883;28;20447;-64
2021/06/23 07:24:00;;;;;;;1.13;1.02;;;19.90;78.40;;;;;;4994866;28;20049;-65
2021/06/23 07:26:28;;;;;;;1.63;1.13;;;20.00;78.90;;;;;;4996750;28;20124;-65
2021/06/23 07:28:55;;;;;;;1.50;1.27;;;20.10;79.10;;;;;;5001600;28;20137;-65
2021/06/23 07:36:56;;;;;;;2.65;1.42;;;20.40;79.60;;;;;;4999667;28;20493;-65
2021/06/23 07:39:22;;;;;;;1.35;1.25;;;20.50;78.60;;;;;;5000623;28;20463;-66
2021/06/23 07:41:49;;;;;;;1.25;1.10;;;20.60;78.90;;;;;;5000696;28;20081;-65
2021/06/23 07:44:19;;;;;;;1.02;0.93;;;20.60;77.90;;;;;;4998546;28;20042;-65
2021/06/23 07:46:51;;;;;;;1.25;0.90;;;20.70;77.60;;;;;;4999342;28;20448;-65
2021/06/23 07:49:18;;;;;;;1.38;1.27;;;20.70;77.50;;;;;;4999191;28;20112;-65
2021/06/23 07:54:22;;;;;;;1.30;1.20;;;20.80;76.80;;;;;;4998494;28;20034;-65
2021/06/23 08:10:17;;;;;;;1.48;1.38;;;21.10;75.80;;;;;;4997871;28;20425;-65
2021/06/23 08:12:45;;;;;;;3.20;1.40;;;21.20;76.10;;;;;;4995935;28;20748;-65
2021/06/23 08:15:11;;;;;;;1.70;1.58;;;21.30;76.50;;;;;;4998856;28;20161;-65
2021/06/23 08:17:37;;;;;;;2.88;1.52;;;21.40;76.90;;;;;;5006114;28;20118;-65
2021/06/23 08:20:04;;;;;;;2.05;1.50;;;21.50;76.30;;;;;;5000952;28;20121;-65
2021/06/23 08:22:30;;;;;;;1.98;1.80;;;21.60;75.60;;;;;;5001519;28;20030;-66
2021/06/23 08:24:55;;;;;;;1.63;1.52;;;21.70;74.70;;;;;;5000037;28;20113;-65
2021/06/23 08:27:21;;;;;;;1.70;1.60;;;21.80;74.30;;;;;;4999908;28;20108;-65
2021/06/23 08:29:46;;;;;;;1.85;1.75;;;21.80;74.20;;;;;;4998943;28;20022;-65
2021/06/23 08:32:12;;;;;;;1.65;1.55;;;21.90;73.70;;;;;;4998616;28;20046;-65
2021/06/23 08:34:37;;;;;;;1.85;1.40;;;21.90;73.70;;;;;;4998318;28;20033;-65
2021/06/23 08:37:03;;;;;;;1.90;1.05;;;21.90;74.40;;;;;;5002507;28;20721;-65
2021/06/23 08:39:29;;;;;;;0.57;0.57;;;22.00;74.20;;;;;;4998825;28;20038;-65
2021/06/23 08:41:55;;;;;;;0.70;0.70;;;22.10;74.40;;;;;;4999234;28;20383;-65
2021/06/23 08:44:22;;;;;;;0.80;0.65;;;22.20;73.20;;;;;;4997020;28;20057;-65
2021/06/23 08:46:49;;;;;;;0.77;0.77;;;22.30;73.20;;;;;;4998516;28;20034;-65
2021/06/23 08:49:15;;;;;;;2.78;0.70;;;22.40;72.60;;;;;;4999719;28;20037;-65
2021/06/23 08:51:43;;;;;;;1.70;0.80;;;22.60;72.10;;;;;;5000317;28;20053;-66
2021/06/23 08:54:09;;;;;;;1.40;0.70;;;22.70;70.80;;;;;;4999085;28;20109;-66
2021/06/23 08:56:35;;;;;;;0.73;0.50;;;22.80;70.90;;;;;;4997959;28;20126;-66
2021/06/23 08:59:04;;;;;;;1.38;0.80;;;22.90;71.10;;;;;;4998248;28;20058;-66
2021/06/23 09:01:34;;;;;;;0.60;0.60;;;23.00;70.30;;;;;;5005065;28;20027;-66
2021/06/23 09:04:08;;;;;;;0.40;0.40;;;23.10;70.00;;;;;;4998459;28;20029;-66
2021/06/23 09:06:48;;;;;;;1.10;0.50;;;23.20;69.50;;;;;;4997633;28;20030;-65
2021/06/23 09:09:22;;;;;;;0.77;0.60;;;23.30;66.40;;;;;;4999192;28;20381;-66
2021/06/23 09:11:50;;;;;;;0.63;0.55;;;23.40;68.30;;;;;;5001103;28;20052;-66
2021/06/23 09:14:17;;;;;;;0.47;0.30;;;23.50;69.00;;;;;;5002196;28;20110;-66
2021/06/23 09:17:03;;;;;;;0.57;0.50;;;23.60;68.20;;;;;;4996716;28;20042;-66
2021/06/23 09:19:30;;;;;;;0.60;0.60;;;23.70;67.60;;;;;;4998857;28;20034;-65
2021/06/23 09:21:56;;;;;;;1.75;0.80;;;23.80;67.50;;;;;;4995209;28;20038;-66
2021/06/23 09:24:41;;;;;;;1.15;0.60;;;23.90;67.90;;;;;;4997419;28;20056;-66
2021/06/23 09:27:23;;;;;;;0.43;0.40;;;24.10;65.70;;;;;;4996765;28;20054;-66
2021/06/23 09:29:52;;;;;;;1.63;0.50;;;24.20;64.30;;;;;;4998537;28;20105;-66
2021/06/23 09:32:21;;;;;;;0.73;0.47;;;24.20;65.50;;;;;;4997856;28;20069;-65
2021/06/23 09:34:50;;;;;;;0.57;0.50;;;24.30;65.90;;;;;;4996006;28;20504;-66
2021/06/23 09:37:30;;;;;;;0.40;0.40;;;24.40;66.40;;;;;;4998209;28;20041;-66
2021/06/23 09:40:15;;;;;;;0.20;0.20;;;24.40;62.80;;;;;;4998423;28;20034;-66
2021/06/23 09:42:46;;;;;;;;;;;24.50;64.20;;;;;;4996436;28;20321;-66
2021/06/23 09:45:14;;;;;;;0.30;0.30;;;24.60;65.50;;;;;;4997230;28;19925;-66
2021/06/23 09:47:40;;;;;;;0.47;0.30;;;24.70;65.10;;;;;;4997326;28;20071;-67
2021/06/23 09:50:11;;;;;;;0.50;0.30;;;24.80;64.10;;;;;;4998105;28;20513;-66
2021/06/23 09:52:52;;;;;;;1.00;0.30;;;24.90;62.50;;;;;;4995829;28;20086;-66
2021/06/23 09:55:18;;;;;;;0.73;0.30;;;25.00;61.20;;;;;;4996637;28;20535;-66
2021/06/23 09:58:07;;;;;;;0.20;0.20;;;25.10;62.00;;;;;;4998232;28;20117;-66
2021/06/23 10:00:34;;;;;;;0.65;0.30;;;25.20;61.00;;;;;;4996839;28;20110;-67
2021/06/23 10:03:05;;;;;;;0.40;0.40;;;25.30;62.20;;;;;;4997231;28;20306;-66
2021/06/23 10:05:31;;;;;;;0.30;0.30;;;25.50;61.30;;;;;;5000689;28;20030;-66
2021/06/23 10:07:57;;;;;;;0.77;0.40;;;25.50;61.70;;;;;;4997773;28;20393;-66
2021/06/23 10:10:42;;;;;;;0.40;0.28;;;25.60;61.10;;;;;;4997037;28;20034;-67
2021/06/23 10:13:09;;;;;;;0.57;0.43;;;25.70;60.60;;;;;;4994832;28;20454;-66
2021/06/23 10:15:36;;;;;;;0.40;0.40;;;25.80;60.60;;;;;;4996713;28;20397;-66
2021/06/23 10:18:03;;;;;;;0.95;0.40;;;25.90;60.50;;;;;;4996150;28;20793;-66
2021/06/23 10:20:29;;;;;;;1.80;0.50;;;26.00;59.40;;;;;;4996982;28;20072;-66
2021/06/23 10:22:55;;;;;;;0.40;0.40;;;26.00;59.70;;;;;;4998491;28;20065;-66
2021/06/23 10:25:23;;;;;;;1.27;0.60;;;26.00;59.40;;;;;;4997437;28;20031;-66
2021/06/23 10:27:50;;;;;;;1.27;0.52;;;26.00;58.40;;;;;;4998692;28;20107;-66
2021/06/23 10:30:16;;;;;;;0.30;0.30;;;26.00;59.00;;;;;;4998537;28;20045;-67
2021/06/23 10:32:43;;;;;;;1.20;0.47;;;26.10;58.90;;;;;;4997851;28;20512;-66
2021/06/23 10:35:10;;;;;;;0.47;0.47;;;26.10;58.40;;;;;;4997874;28;20085;-66
2021/06/23 10:37:39;;;;;;;0.50;0.50;;;26.10;58.30;;;;;;5003813;28;20040;-66
2021/06/23 10:40:07;;;;;;;1.30;0.40;;;26.10;58.20;;;;;;5003506;28;20041;-67
2021/06/23 10:42:34;;;;;;;0.80;0.40;;;26.20;57.70;;;;;;4998452;28;20026;-66
2021/06/23 10:44:59;;;;;;;0.30;0.30;;;26.20;58.00;;;;;;4998113;28;20057;-67
2021/06/23 10:47:46;;;;;;;0.43;0.40;;;26.20;58.10;;;;;;4997252;28;20058;-67
2021/06/23 10:50:17;;;;;;;0.30;0.30;;;26.30;57.10;;;;;;4997350;28;20041;-67
2021/06/23 10:52:47;;;;;;;0.70;0.60;;;26.40;56.80;;;;;;4996588;28;20038;-66
2021/06/23 10:55:21;;;;;;;0.30;0.30;;;26.40;56.30;;;;;;4996143;28;20182;-66
2021/06/23 10:57:48;;;;;;;;;;;26.40;57.00;;;;;;5002808;28;20073;-66
2021/06/23 11:00:17;;;;;;;0.82;0.70;;;26.50;58.60;;;;;;4998503;28;19913;-66
2021/06/23 11:02:46;;;;;;;0.88;0.40;;;26.50;57.70;;;;;;5006338;28;20648;-66
2021/06/23 11:05:17;;;;;;;0.57;0.55;;;26.60;57.90;;;;;;5000296;28;20584;-66
2021/06/23 11:07:51;;;;;;;0.95;0.60;;;26.60;57.00;;;;;;5000833;28;20165;-66
2021/06/23 11:10:19;;;;;;;0.50;0.50;;;26.60;56.70;;;;;;5001352;28;20038;-66
2021/06/23 11:12:49;;;;;;;0.50;0.50;;;26.70;57.00;;;;;;5005445;28;20045;-66
2021/06/23 11:15:15;;;;;;;0.70;0.57;;;26.70;57.00;;;;;;5006040;28;20046;-66
2021/06/23 11:17:41;;;;;;;0.68;0.43;;;26.70;57.10;;;;;;5001027;28;20317;-66
2021/06/23 11:20:18;;;;;;;0.60;0.40;;;26.80;56.70;;;;;;5006064;28;20521;-66
2021/06/23 11:22:48;;;;;;;0.73;0.52;;;26.80;56.00;;;;;;5000518;28;20884;-66
2021/06/23 11:25:34;;;;;;;0.38;0.38;;;26.80;56.30;;;;;;5000094;28;20041;-66
2021/06/23 11:28:10;;;;;;;1.55;0.57;;;26.80;56.20;;;;;;5000979;28;20397;-66
2021/06/23 11:30:37;;;;;;;0.85;0.70;;;26.80;56.20;;;;;;5000628;28;20030;-67
2021/06/23 11:33:27;;;;;;;1.00;0.40;;;26.80;56.60;;;;;;5015237;28;20042;-66
2021/06/23 11:36:01;;;;;;;0.60;0.50;;;26.80;56.60;;;;;;5000216;28;20030;-67
2021/06/23 11:38:27;;;;;;;0.88;0.55;;;26.90;56.20;;;;;;4999698;28;20421;-66
2021/06/23 11:40:55;;;;;;;0.77;0.60;;;26.90;56.70;;;;;;5014012;28;20061;-66
2021/06/23 11:43:21;;;;;;;0.60;0.60;;;26.90;56.50;;;;;;4999602;28;20330;-67
2021/06/23 11:45:48;;;;;;;0.70;0.70;;;27.00;56.30;;;;;;5000703;28;20497;-67
2021/06/23 11:48:15;;;;;;;0.75;0.75;;;27.00;55.70;;;;;;5003926;28;20046;-67
2021/06/23 11:50:43;;;;;;;0.80;0.50;;;27.00;55.80;;;;;;4999443;28;20060;-66
2021/06/23 11:53:10;;;;;;;0.52;0.50;;;27.00;55.90;;;;;;5000433;28;20042;-66
2021/06/23 11:55:36;;;;;;;2.05;0.60;;;27.00;55.80;;;;;;4999813;28;20490;-67
2021/06/23 11:58:02;;;;;;;1.00;0.70;;;27.00;55.60;;;;;;5007325;28;20037;-66
2021/06/23 12:00:30;;;;;;;1.40;0.80;;;27.10;55.50;;;;;;4999568;28;20112;-67
2021/06/23 12:02:58;;;;;;;1.85;0.90;;;27.10;55.40;;;;;;5000359;28;20454;-66
2021/06/23 12:05:24;;;;;;;1.35;0.75;;;27.10;55.10;;;;;;4999196;28;20510;-67
2021/06/23 12:07:51;;;;;;;1.17;0.80;;;27.10;55.00;;;;;;5000088;28;20050;-66
2021/06/23 12:10:19;;;;;;;2.83;0.75;;;27.10;55.00;;;;;;5002811;28;20042;-67
2021/06/23 12:12:47;;;;;;;0.77;0.60;;;27.10;55.40;;;;;;5001649;28;20066;-67
2021/06/23 12:15:13;;;;;;;0.75;0.57;;;27.10;55.00;;;;;;5004761;28;20045;-66
2021/06/23 12:17:39;;;;;;;0.60;0.60;;;27.10;55.30;;;;;;4998446;28;20501;-66
2021/06/23 12:20:07;;;;;;;0.98;0.63;;;27.10;55.10;;;;;;4999850;28;20030;-66
2021/06/23 12:22:34;;;;;;;0.70;0.70;;;27.10;55.00;;;;;;4996948;28;20074;-66
2021/06/23 12:25:00;;;;;;;0.90;0.70;;;27.10;54.60;;;;;;4998575;28;20084;-66
2021/06/23 12:27:26;;;;;;;3.15;0.80;;;27.00;54.80;;;;;;4998076;28;20060;-66
2021/06/23 12:29:52;;;;;;;0.80;0.80;;;27.00;54.30;;;;;;4999072;28;20034;-66
2021/06/23 12:32:18;;;;;;;1.58;0.60;;;27.00;54.80;;;;;;4997838;28;20092;-66
2021/06/23 12:34:43;;;;;;;1.02;0.90;;;26.90;55.50;;;;;;5002480;28;20050;-66
2021/06/23 12:37:09;;;;;;;1.02;0.82;;;26.90;54.40;;;;;;4997778;28;20401;-67
2021/06/23 12:39:35;;;;;;;0.75;0.73;;;26.90;54.80;;;;;;4998494;28;20569;-66
2021/06/23 12:42:01;;;;;;;0.70;0.70;;;26.80;55.10;;;;;;4998986;28;20116;-66
2021/06/23 12:44:26;;;;;;;2.00;0.75;;;26.80;55.10;;;;;;4999109;28;20640;-67
2021/06/23 12:46:53;;;;;;;1.20;0.90;;;26.80;55.20;;;;;;4999472;28;20040;-66
2021/06/23 12:49:18;;;;;;;1.23;0.70;;;26.80;55.00;;;;;;4998932;28;20038;-67
2021/06/23 12:51:44;;;;;;;0.60;0.60;;;26.80;54.80;;;;;;4998714;28;20045;-66
2021/06/23 12:54:10;;;;;;;1.33;0.70;;;26.80;55.30;;;;;;4997845;28;20088;-66
2021/06/23 12:56:36;;;;;;;1.10;0.70;;;26.80;55.00;;;;;;5004232;28;20130;-67
2021/06/23 12:59:01;;;;;;;0.80;0.80;;;26.80;55.80;;;;;;4999547;28;20030;-66
2021/06/23 13:01:27;;;;;;;0.95;0.50;;;26.90;55.60;;;;;;4995736;28;20560;-66
2021/06/23 13:03:53;;;;;;;0.73;0.63;;;26.90;55.50;;;;;;4997661;28;20033;-67
2021/06/23 13:06:18;;;;;;;0.50;0.50;;;26.90;54.80;;;;;;4999301;28;20034;-66
2021/06/23 13:08:44;;;;;;;2.17;0.57;;;27.00;54.80;;;;;;4998102;28;20038;-67
2021/06/23 13:11:12;;;;;;;0.68;0.60;;;27.00;55.00;;;;;;4999390;28;20458;-67